Time;durP1;ratioP1;P1;durP2;ratioP2;P2;SDS_P1;SDS_P2;PMS_P1;PMS_P2;Temp;Humidity;BMP_temperature;BMP_pressure;BME280_temperature;BME280_humidity;BME280_pressure;Samples;Min_cycle;Max_cycle;Signal;HPM_P1;HPM_P2
2021/10/08 00:00:53;;;;;;;4.88;4.30;;;;;;;8.53;75.96;100096.50;2618773;54;20042;-64
2021/10/08 00:03:23;;;;;;;5.22;4.65;;;;;;;8.58;75.94;100099.50;2619617;54;20034;-63
2021/10/08 00:05:52;;;;;;;5.90;4.72;;;;;;;8.46;75.45;100103.31;2619955;54;20596;-63
2021/10/08 00:08:22;;;;;;;8.35;4.78;;;;;;;8.37;75.06;100112.13;2619822;54;20037;-65
2021/10/08 00:10:52;;;;;;;7.43;4.93;;;;;;;8.25;75.56;100108.81;2619729;54;20074;-63
2021/10/08 00:13:21;;;;;;;7.10;5.22;;;;;;;8.24;75.94;100109.75;2620247;54;20034;-64
2021/10/08 00:15:53;;;;;;;8.93;5.47;;;;;;;8.26;75.73;100109.63;2620583;54;20081;-62
2021/10/08 00:18:23;;;;;;;6.88;5.53;;;;;;;8.24;75.61;100109.75;2619643;54;20069;-63
2021/10/08 00:20:52;;;;;;;6.68;4.65;;;;;;;8.15;75.72;100111.47;2619620;54;20074;-63
2021/10/08 00:23:22;;;;;;;9.70;5.50;;;;;;;8.10;76.01;100118.16;2620272;54;20134;-65
2021/10/08 00:25:52;;;;;;;5.20;4.70;;;;;;;8.03;75.83;100117.06;2620746;54;20030;-64
2021/10/08 00:28:21;;;;;;;6.47;4.78;;;;;;;8.03;75.83;100124.97;2620319;54;20121;-63
2021/10/08 00:30:54;;;;;;;6.25;5.07;;;;;;;8.04;76.28;100116.94;2619872;54;20572;-63
2021/10/08 00:33:24;;;;;;;6.75;5.03;;;;;;;8.09;76.14;100114.69;2620416;54;20559;-64
2021/10/08 00:35:54;;;;;;;6.28;4.85;;;;;;;8.16;76.05;100117.56;2620614;39;20434;-63
2021/10/08 00:38:24;;;;;;;6.47;4.72;;;;;;;8.17;76.16;100117.44;2619945;48;20029;-63
2021/10/08 00:40:54;;;;;;;4.80;4.40;;;;;;;8.14;75.83;100120.34;2620307;54;20061;-64
2021/10/08 00:43:25;;;;;;;8.10;5.43;;;;;;;8.16;76.27;100109.66;2620008;54;20915;-63
2021/10/08 00:45:58;;;;;;;7.78;4.80;;;;;;;8.08;75.35;100118.31;2620135;39;20426;-64
2021/10/08 00:48:27;;;;;;;7.30;4.95;;;;;;;8.04;75.92;100108.19;2621592;39;20519;-63
2021/10/08 00:50:57;;;;;;;9.35;5.00;;;;;;;7.98;75.66;100111.41;2621282;54;20038;-63
2021/10/08 00:53:27;;;;;;;8.10;5.22;;;;;;;7.88;75.45;100111.44;2620872;47;20557;-63
2021/10/08 00:55:57;;;;;;;6.22;4.93;;;;;;;7.74;75.67;100107.44;2620556;54;20085;-63
2021/10/08 00:58:27;;;;;;;7.43;4.70;;;;;;;7.64;76.02;100111.91;2620932;54;20102;-63
2021/10/08 01:00:59;;;;;;;6.88;4.38;;;;;;;7.55;76.36;100105.69;2620449;54;20163;-63
2021/10/08 01:03:29;;;;;;;5.80;4.63;;;;;;;7.52;76.76;100113.88;2622163;54;20027;-63
2021/10/08 01:05:58;;;;;;;5.20;4.70;;;;;;;7.51;76.78;100111.34;2622320;54;20042;-64
2021/10/08 01:08:28;;;;;;;11.10;5.22;;;;;;;7.48;76.63;100109.03;2621234;47;20031;-63
2021/10/08 01:10:59;;;;;;;4.93;4.43;;;;;;;7.55;76.90;100102.22;2621432;54;20042;-65
2021/10/08 01:13:30;;;;;;;5.13;4.47;;;;;;;7.59;76.70;100099.19;2621440;54;20030;-65
2021/10/08 01:16:02;;;;;;;6.30;5.50;;;;;;;7.62;76.80;100100.69;2619981;54;20031;-63
2021/10/08 01:18:37;;;;;;;5.95;4.93;;;;;;;7.59;76.72;100098.31;2619574;47;20033;-63
2021/10/08 01:21:10;;;;;;;6.60;4.93;;;;;;;7.57;76.52;100097.66;2620194;54;20030;-63
2021/10/08 01:23:40;;;;;;;6.47;4.90;;;;;;;7.57;76.46;100095.03;2619555;47;20026;-63
2021/10/08 01:26:09;;;;;;;6.88;5.03;;;;;;;7.48;76.58;100091.44;2619562;47;20078;-64
2021/10/08 01:28:40;;;;;;;5.05;4.38;;;;;;;7.39;76.67;100089.66;2619270;47;20034;-65
2021/10/08 01:31:15;;;;;;;13.43;4.93;;;;;;;7.43;76.94;100098.94;2619211;46;20031;-65
2021/10/08 01:33:59;;;;;;;5.05;4.50;;;;;;;7.52;77.08;100087.56;2619106;47;20054;-65
2021/10/08 01:36:36;;;;;;;6.05;4.68;;;;;;;7.57;76.74;100093.22;2619382;47;20030;-63
2021/10/08 01:39:10;;;;;;;6.68;5.18;;;;;;;7.59;76.69;100093.06;2620361;31;20468;-64
2021/10/08 01:41:42;;;;;;;6.20;5.15;;;;;;;7.58;76.16;100094.03;2618877;54;20058;-64
2021/10/08 01:44:19;;;;;;;6.32;5.18;;;;;;;7.52;76.13;100084.94;2619825;47;20023;-64
2021/10/08 01:46:51;;;;;;;8.68;4.78;;;;;;;7.51;76.25;100085.03;2619287;54;20030;-64
2021/10/08 01:49:25;;;;;;;6.45;4.90;;;;;;;7.44;76.42;100087.44;2619136;54;20040;-64
2021/10/08 01:51:57;;;;;;;8.80;4.90;;;;;;;7.42;76.58;100100.72;2619893;54;20027;-65
2021/10/08 01:54:32;;;;;;;6.80;4.55;;;;;;;7.40;76.73;100094.78;2619873;46;20046;-63
2021/10/08 01:57:02;;;;;;;6.88;4.00;;;;;;;7.39;76.23;100098.38;2619970;54;20038;-63
2021/10/08 01:59:33;;;;;;;4.43;4.03;;;;;;;7.33;76.35;100091.03;2619300;54;20022;-63
2021/10/08 02:02:05;;;;;;;5.80;4.30;;;;;;;7.25;76.41;100093.53;2618201;47;20030;-63
2021/10/08 02:04:35;;;;;;;7.75;4.18;;;;;;;7.19;76.53;100097.56;2618761;54;20023;-64
2021/10/08 02:07:08;;;;;;;5.78;4.75;;;;;;;7.12;76.73;100095.63;2618842;54;20026;-63
2021/10/08 02:09:40;;;;;;;5.13;4.63;;;;;;;7.03;77.00;100092.03;2618932;54;20041;-63
2021/10/08 02:12:10;;;;;;;8.25;4.88;;;;;;;6.99;77.27;100088.00;2619942;54;20045;-63
2021/10/08 02:14:40;;;;;;;5.18;4.45;;;;;;;6.98;77.16;100088.13;2619840;47;20035;-63
2021/10/08 02:17:10;;;;;;;6.75;4.72;;;;;;;6.98;77.15;100083.72;2619825;47;20034;-63
2021/10/08 02:19:40;;;;;;;8.88;4.35;;;;;;;6.98;77.15;100090.75;2618666;54;20034;-63
2021/10/08 02:22:12;;;;;;;7.35;4.35;;;;;;;6.97;77.03;100086.47;2618673;47;20026;-63
2021/10/08 02:24:49;;;;;;;4.55;4.00;;;;;;;7.03;77.48;100088.56;2618508;54;20057;-63
2021/10/08 02:27:18;;;;;;;6.75;4.40;;;;;;;7.02;77.44;100086.88;2617928;54;20046;-63
2021/10/08 02:29:48;;;;;;;5.30;4.45;;;;;;;7.14;76.99;100091.03;2618382;54;20110;-64
2021/10/08 02:32:19;;;;;;;7.80;4.28;;;;;;;7.21;76.86;100089.53;2618364;47;20019;-63
2021/10/08 02:34:50;;;;;;;7.68;5.10;;;;;;;7.14;76.35;100085.78;2618137;47;20047;-63
2021/10/08 02:37:22;;;;;;;7.72;4.93;;;;;;;7.04;76.49;100085.78;2618895;39;20449;-63
2021/10/08 02:39:52;;;;;;;8.30;4.63;;;;;;;7.05;77.00;100087.44;2618359;39;20418;-63
2021/10/08 02:42:22;;;;;;;6.22;4.50;;;;;;;7.06;77.07;100088.28;2618252;47;20113;-63
2021/10/08 02:44:52;;;;;;;8.13;5.30;;;;;;;7.05;76.52;100078.72;2618136;47;20026;-63
2021/10/08 02:47:22;;;;;;;9.88;5.03;;;;;;;7.03;76.61;100084.13;2618917;46;20058;-63
2021/10/08 02:49:52;;;;;;;6.03;5.15;;;;;;;7.06;76.38;100089.13;2618569;54;20019;-64
2021/10/08 02:52:26;;;;;;;6.80;5.15;;;;;;;6.98;76.69;100086.38;2618250;47;20037;-64
2021/10/08 02:55:08;;;;;;;6.53;4.78;;;;;;;6.92;76.67;100076.38;2618619;54;20118;-64
2021/10/08 02:57:39;;;;;;;5.55;4.97;;;;;;;6.91;76.94;100080.81;2618394;54;20022;-64
2021/10/08 03:00:12;;;;;;;8.60;5.15;;;;;;;6.91;76.43;100077.34;2618193;39;20454;-64
2021/10/08 03:02:43;;;;;;;7.88;5.78;;;;;;;6.85;76.49;100080.53;2617567;54;20026;-64
2021/10/08 03:05:12;;;;;;;6.15;5.28;;;;;;;6.84;76.65;100068.34;2618567;54;20030;-64
2021/10/08 03:07:45;;;;;;;11.30;5.85;;;;;;;6.96;77.00;100067.25;2618643;54;20026;-64
2021/10/08 03:10:17;;;;;;;6.57;5.07;;;;;;;7.03;76.74;100075.44;2619083;47;20556;-64
2021/10/08 03:12:48;;;;;;;7.07;5.03;;;;;;;7.01;76.49;100078.19;2618643;47;20043;-64
2021/10/08 03:15:19;;;;;;;10.63;5.10;;;;;;;6.89;76.30;100079.28;2620324;39;20497;-64
2021/10/08 03:17:49;;;;;;;9.07;4.80;;;;;;;6.93;76.68;100083.28;2618470;47;20024;-64
2021/10/08 03:20:19;;;;;;;6.00;4.47;;;;;;;6.91;76.68;100085.25;2619218;54;20053;-64
2021/10/08 03:22:52;;;;;;;6.43;5.18;;;;;;;6.95;76.79;100089.25;2618568;51;20023;-64
2021/10/08 03:25:22;;;;;;;6.28;5.22;;;;;;;6.88;76.13;100088.13;2618574;54;20043;-64
2021/10/08 03:27:52;;;;;;;8.13;5.75;;;;;;;6.82;76.54;100084.28;2618727;47;20046;-64
2021/10/08 03:30:22;;;;;;;7.18;5.13;;;;;;;6.74;76.17;100085.94;2619213;54;20042;-64
2021/10/08 03:32:52;;;;;;;6.97;5.40;;;;;;;6.64;76.36;100089.34;2618521;47;20138;-64
2021/10/08 03:35:21;;;;;;;6.40;4.93;;;;;;;6.61;76.56;100084.38;2618552;54;20030;-64
2021/10/08 03:37:59;;;;;;;7.53;4.50;;;;;;;6.70;77.05;100085.38;2619088;54;20038;-64
2021/10/08 03:40:31;;;;;;;7.88;4.82;;;;;;;6.81;76.91;100085.22;2619059;54;20085;-64
2021/10/08 03:43:01;;;;;;;8.13;4.88;;;;;;;6.89;76.75;100090.63;2618155;54;20041;-64
2021/10/08 03:45:42;;;;;;;9.82;5.18;;;;;;;6.92;76.49;100094.78;2618754;54;20035;-65
2021/10/08 03:48:32;;;;;;;14.32;5.05;;;;;;;6.84;76.24;100095.47;2618023;47;20022;-64
2021/10/08 03:51:04;;;;;;;6.00;4.95;;;;;;;6.74;76.34;100093.81;2618805;47;20023;-63
2021/10/08 03:53:36;;;;;;;6.45;4.97;;;;;;;6.66;76.71;100092.69;2619983;54;20042;-63
2021/10/08 03:56:07;;;;;;;6.80;5.22;;;;;;;6.63;76.55;100092.94;2619602;54;20070;-63
2021/10/08 03:58:37;;;;;;;9.75;6.38;;;;;;;6.64;76.83;100096.41;2623739;54;20042;-63
2021/10/08 04:01:06;;;;;;;6.78;5.15;;;;;;;6.62;77.05;100103.59;2623900;51;20087;-63
2021/10/08 04:03:36;;;;;;;6.22;5.05;;;;;;;6.61;77.02;100101.94;2623930;54;20022;-63
2021/10/08 04:06:07;;;;;;;6.38;5.15;;;;;;;6.62;76.76;100101.81;2624485;47;20031;-65
2021/10/08 04:08:41;;;;;;;9.07;5.28;;;;;;;6.63;77.00;100105.25;2623390;54;20043;-65
2021/10/08 04:11:12;;;;;;;7.68;5.35;;;;;;;6.62;76.76;100104.44;2623444;54;20034;-65
2021/10/08 04:13:42;;;;;;;9.40;6.05;;;;;;;6.61;76.92;100099.28;2623019;54;20030;-65
2021/10/08 04:16:13;;;;;;;9.82;6.63;;;;;;;6.58;76.87;100107.47;2623463;54;20026;-64
2021/10/08 04:18:44;;;;;;;11.95;6.30;;;;;;;6.65;77.39;100098.06;2621822;47;20038;-64
2021/10/08 04:21:14;;;;;;;10.63;6.28;;;;;;;6.78;76.92;100101.28;2621913;54;20046;-65
2021/10/08 04:23:47;;;;;;;7.55;6.20;;;;;;;6.90;77.18;100099.38;2622635;47;20034;-65
2021/10/08 04:26:18;;;;;;;9.77;6.45;;;;;;;7.00;77.02;100102.00;2622602;47;20037;-65
2021/10/08 04:28:47;;;;;;;8.52;6.47;;;;;;;7.07;76.53;100109.19;2622911;47;20038;-65
2021/10/08 04:31:18;;;;;;;8.73;6.43;;;;;;;7.11;76.03;100109.75;2623217;47;20039;-65
2021/10/08 04:33:50;;;;;;;8.68;6.20;;;;;;;7.07;76.30;100117.06;2622489;47;20081;-64
2021/10/08 04:36:20;;;;;;;10.25;5.68;;;;;;;7.06;75.78;100110.16;2621248;47;20502;-64
2021/10/08 04:38:53;;;;;;;9.48;6.55;;;;;;;7.06;76.11;100112.78;2619991;54;20087;-64
2021/10/08 04:41:24;;;;;;;7.43;6.30;;;;;;;6.95;75.57;100112.91;2619222;47;20035;-63
2021/10/08 04:43:53;;;;;;;10.65;7.20;;;;;;;6.78;75.35;100122.31;2618852;47;20040;-63
2021/10/08 04:46:23;;;;;;;8.88;7.20;;;;;;;6.66;76.03;100118.97;2619344;54;20038;-63
2021/10/08 04:48:55;;;;;;;7.53;6.38;;;;;;;6.68;76.59;100124.91;2619055;39;20399;-63
2021/10/08 04:51:25;;;;;;;9.02;6.43;;;;;;;6.67;76.47;100119.78;2619343;54;20031;-63
2021/10/08 04:53:58;;;;;;;15.15;6.70;;;;;;;6.63;76.52;100115.78;2622756;54;20033;-64
2021/10/08 04:56:28;;;;;;;10.90;5.85;;;;;;;6.64;76.35;100122.69;2624479;39;20415;-64
2021/10/08 04:58:58;;;;;;;12.10;6.85;;;;;;;6.57;76.75;100113.66;2622231;54;20078;-64
2021/10/08 05:01:28;;;;;;;10.95;7.50;;;;;;;6.61;77.08;100120.31;2620741;39;20422;-64
2021/10/08 05:03:59;;;;;;;13.38;6.78;;;;;;;6.66;76.46;100123.41;2619059;47;20030;-64
2021/10/08 05:06:30;;;;;;;9.43;6.63;;;;;;;6.69;77.03;100123.09;2618965;54;20023;-64
2021/10/08 05:09:03;;;;;;;9.23;5.88;;;;;;;6.67;76.75;100118.00;2618727;47;20061;-64
2021/10/08 05:11:33;;;;;;;13.00;6.47;;;;;;;6.66;76.75;100112.88;2618257;54;20034;-64
2021/10/08 05:14:03;;;;;;;10.07;6.72;;;;;;;6.64;76.35;100114.81;2618855;54;20126;-65
2021/10/08 05:16:37;;;;;;;10.23;6.32;;;;;;;6.60;76.48;100121.28;2619221;54;20078;-64
2021/10/08 05:19:08;;;;;;;8.82;6.63;;;;;;;6.56;76.89;100114.66;2619615;46;20545;-64
2021/10/08 05:21:43;;;;;;;11.88;6.05;;;;;;;6.60;77.10;100116.88;2619332;54;20023;-64
2021/10/08 05:24:16;;;;;;;9.95;6.20;;;;;;;6.71;76.86;100118.56;2620246;54;20027;-64
2021/10/08 05:26:46;;;;;;;7.65;6.20;;;;;;;6.70;76.86;100117.72;2620069;54;20126;-64
2021/10/08 05:29:15;;;;;;;8.27;6.50;;;;;;;6.78;76.81;100110.97;2619191;54;20030;-64
2021/10/08 05:31:45;;;;;;;9.60;6.90;;;;;;;6.84;76.50;100111.25;2618888;47;20041;-65
2021/10/08 05:34:16;;;;;;;10.73;7.28;;;;;;;6.81;76.33;100119.38;2619653;54;20553;-64
2021/10/08 05:36:48;;;;;;;11.48;8.13;;;;;;;6.83;76.82;100116.66;2618929;54;20074;-64
2021/10/08 05:39:23;;;;;;;11.90;7.28;;;;;;;6.91;76.88;100122.88;2620352;39;20537;-65
2021/10/08 05:41:53;;;;;;;9.10;7.00;;;;;;;6.95;76.84;100123.44;2619408;54;20049;-64
2021/10/08 05:44:23;;;;;;;12.43;7.63;;;;;;;7.01;76.42;100122.88;2618823;54;20026;-64
2021/10/08 05:46:54;;;;;;;10.48;7.07;;;;;;;7.07;76.30;100124.13;2617990;54;20135;-65
2021/10/08 05:49:24;;;;;;;11.48;6.90;;;;;;;7.01;75.94;100117.63;2617866;47;20030;-64
2021/10/08 05:51:53;;;;;;;10.00;7.50;;;;;;;6.99;76.15;100124.00;2617781;54;20026;-64
2021/10/08 05:54:26;;;;;;;11.05;7.35;;;;;;;6.90;75.41;100129.09;2618636;54;20033;-64
2021/10/08 05:56:55;;;;;;;9.82;7.82;;;;;;;6.90;75.46;100130.91;2618234;54;20545;-64
2021/10/08 05:59:25;;;;;;;10.43;7.75;;;;;;;6.82;75.60;100128.97;2618863;54;20039;-64
2021/10/08 06:01:55;;;;;;;18.15;7.22;;;;;;;6.82;76.11;100139.47;2618276;47;20038;-65
2021/10/08 06:04:24;;;;;;;11.00;7.90;;;;;;;6.81;76.04;100137.78;2619497;54;20131;-65
2021/10/08 06:06:54;;;;;;;11.38;7.35;;;;;;;6.84;76.02;100136.69;2619153;39;20530;-64
2021/10/08 06:09:26;;;;;;;15.05;7.97;;;;;;;6.86;75.73;100137.41;2618995;54;20069;-64
2021/10/08 06:11:56;;;;;;;10.73;6.80;;;;;;;6.83;75.64;100132.41;2618279;54;20086;-65
2021/10/08 06:14:26;;;;;;;12.57;7.50;;;;;;;6.83;75.95;100124.53;2618759;54;20030;-64
2021/10/08 06:16:56;;;;;;;14.73;8.27;;;;;;;6.86;76.34;100126.88;2620510;47;20622;-65
2021/10/08 06:19:26;;;;;;;11.82;7.65;;;;;;;6.88;76.05;100133.66;2620777;47;20070;-64
2021/10/08 06:21:56;;;;;;;13.07;8.20;;;;;;;6.89;75.72;100129.22;2621095;54;20060;-64
2021/10/08 06:24:28;;;;;;;17.23;8.23;;;;;;;6.95;76.42;100139.22;2620657;54;20022;-65
2021/10/08 06:26:59;;;;;;;10.38;7.22;;;;;;;7.00;76.18;100139.63;2619551;54;20042;-64
2021/10/08 06:29:29;;;;;;;15.20;7.75;;;;;;;7.00;75.62;100137.00;2619586;54;20030;-65
2021/10/08 06:31:59;;;;;;;10.77;7.50;;;;;;;7.02;75.95;100135.06;2618097;51;20036;-64
2021/10/08 06:34:29;;;;;;;9.65;6.63;;;;;;;7.11;76.05;100128.97;2617960;54;20056;-64
2021/10/08 06:36:59;;;;;;;10.60;6.95;;;;;;;7.20;75.57;100133.41;2617958;47;20034;-64
2021/10/08 06:39:31;;;;;;;13.27;7.22;;;;;;;7.25;75.45;100140.06;2618460;54;20023;-65
2021/10/08 06:42:06;;;;;;;14.75;7.82;;;;;;;7.33;75.64;100142.81;2617645;54;20030;-66
2021/10/08 06:44:38;;;;;;;11.87;7.97;;;;;;;7.36;75.54;100138.13;2617655;46;20023;-64
2021/10/08 06:47:08;;;;;;;14.23;7.93;;;;;;;7.39;75.49;100139.66;2617739;50;20026;-64
2021/10/08 06:49:38;;;;;;;21.67;12.45;;;;;;;7.48;75.39;100135.34;2618181;47;20033;-66
2021/10/08 06:52:08;;;;;;;23.30;12.05;;;;;;;7.58;75.60;100136.97;2619246;47;20018;-67
2021/10/08 06:54:41;;;;;;;17.42;10.55;;;;;;;7.69;75.32;100130.72;2622755;54;20023;-66
2021/10/08 06:57:11;;;;;;;15.52;8.98;;;;;;;7.73;74.96;100133.91;2621597;54;20026;-67
2021/10/08 06:59:40;;;;;;;12.85;7.80;;;;;;;7.84;75.42;100139.84;2619394;54;20545;-66
2021/10/08 07:02:10;;;;;;;12.10;8.55;;;;;;;7.96;74.80;100135.25;2619253;47;20037;-67
2021/10/08 07:04:40;;;;;;;27.40;18.83;;;;;;;8.04;75.09;100137.16;2619405;51;20554;-66
2021/10/08 07:07:12;;;;;;;19.40;12.52;;;;;;;8.12;74.51;100135.47;2619384;54;20041;-67
2021/10/08 07:09:54;;;;;;;23.42;12.20;;;;;;;8.15;74.11;100134.34;2619252;47;20537;-67
2021/10/08 07:12:24;;;;;;;28.85;15.52;;;;;;;8.22;74.32;100131.97;2618246;54;20114;-68
2021/10/08 07:14:53;;;;;;;25.08;13.02;;;;;;;8.30;74.04;100135.53;2619215;54;20067;-67
2021/10/08 07:17:44;;;;;;;23.17;12.45;;;;;;;8.41;73.90;100138.03;2618804;47;20564;-66
2021/10/08 07:20:15;;;;;;;21.92;11.18;;;;;;;8.51;74.19;100137.13;2619152;54;20142;-66
2021/10/08 07:22:44;;;;;;;19.73;11.75;;;;;;;8.62;74.01;100134.31;2619977;54;20070;-66
2021/10/08 07:25:16;;;;;;;20.30;11.43;;;;;;;8.73;73.87;100133.25;2622248;54;20026;-66
2021/10/08 07:27:48;;;;;;;21.00;10.93;;;;;;;8.81;73.68;100126.25;2622824;39;20433;-66
2021/10/08 07:30:19;;;;;;;21.92;12.30;;;;;;;8.93;73.66;100132.16;2621409;54;20022;-66
2021/10/08 07:32:53;;;;;;;15.45;10.77;;;;;;;9.03;73.91;100130.28;2622560;54;20082;-67
2021/10/08 07:35:23;;;;;;;15.90;11.48;;;;;;;9.16;73.52;100125.47;2622953;54;20090;-67
2021/10/08 07:37:53;;;;;;;15.68;10.32;;;;;;;9.30;73.36;100129.38;2622463;47;20046;-65
2021/10/08 07:40:25;;;;;;;16.98;10.82;;;;;;;9.40;73.23;100132.75;2622869;54;20033;-66
2021/10/08 07:42:54;;;;;;;15.25;10.68;;;;;;;9.48;73.41;100137.28;2622741;54;20078;-66
2021/10/08 07:45:24;;;;;;;18.85;12.90;;;;;;;9.59;73.03;100136.19;2622758;54;20035;-66
2021/10/08 07:47:53;;;;;;;15.52;10.35;;;;;;;9.68;73.26;100133.47;2622506;47;20117;-67
2021/10/08 07:50:23;;;;;;;13.85;11.02;;;;;;;9.79;73.19;100127.09;2620784;54;20022;-66
2021/10/08 07:52:52;;;;;;;14.52;10.15;;;;;;;9.90;72.86;100134.75;2619811;54;20117;-66
2021/10/08 07:55:24;;;;;;;23.98;13.10;;;;;;;9.99;72.38;100130.34;2621053;47;20046;-67
2021/10/08 07:57:54;;;;;;;17.70;10.25;;;;;;;10.00;72.56;100128.53;2623210;54;20533;-67
2021/10/08 08:00:24;;;;;;;13.63;9.70;;;;;;;10.01;73.22;100131.03;2622993;47;20026;-66
2021/10/08 08:02:54;;;;;;;15.45;10.73;;;;;;;10.14;73.43;100133.25;2623220;54;20042;-67
2021/10/08 08:05:23;;;;;;;14.02;10.00;;;;;;;10.26;72.95;100141.78;2623082;54;20034;-67
2021/10/08 08:07:53;;;;;;;12.43;9.82;;;;;;;10.34;73.18;100129.41;2621904;47;20550;-67
2021/10/08 08:10:25;;;;;;;16.35;9.98;;;;;;;10.48;72.91;100129.81;2622402;54;20093;-66
2021/10/08 08:12:55;;;;;;;13.55;10.48;;;;;;;10.57;72.87;100134.97;2622729;54;20062;-67
2021/10/08 08:15:24;;;;;;;12.55;9.27;;;;;;;10.65;72.49;100140.28;2623025;54;20648;-67
2021/10/08 08:17:54;;;;;;;17.60;10.05;;;;;;;10.79;72.25;100132.72;2622589;54;20112;-67
2021/10/08 08:20:23;;;;;;;13.73;10.77;;;;;;;10.87;72.27;100124.81;2622423;54;20026;-66
2021/10/08 08:22:53;;;;;;;13.95;10.93;;;;;;;10.97;72.14;100137.88;2622740;54;20034;-66
2021/10/08 08:25:25;;;;;;;12.50;10.10;;;;;;;11.06;72.04;100132.47;2622116;47;20050;-67
2021/10/08 08:27:55;;;;;;;12.40;10.38;;;;;;;11.15;72.09;100130.63;2623281;54;20050;-67
2021/10/08 08:30:24;;;;;;;15.18;9.90;;;;;;;11.26;71.71;100132.13;2623673;54;20151;-68
2021/10/08 08:32:54;;;;;;;27.83;16.98;;;;;;;11.37;71.47;100135.28;2623161;54;20070;-66
2021/10/08 08:35:23;;;;;;;13.93;11.32;;;;;;;11.51;71.26;100119.72;2620705;47;20082;-67
2021/10/08 08:37:53;;;;;;;13.70;9.05;;;;;;;11.65;71.24;100129.66;2621725;47;20046;-67
2021/10/08 08:40:28;;;;;;;10.75;8.57;;;;;;;11.84;71.17;100120.56;2622596;54;20557;-67
2021/10/08 08:42:58;;;;;;;8.90;7.20;;;;;;;12.05;70.69;100126.13;2623637;54;20046;-67
2021/10/08 08:45:30;;;;;;;9.52;7.88;;;;;;;12.12;71.19;100128.91;2624795;39;20450;-67
2021/10/08 08:48:01;;;;;;;8.38;6.82;;;;;;;12.32;71.01;100132.81;2624294;54;20078;-67
2021/10/08 08:50:32;;;;;;;9.15;6.40;;;;;;;12.47;70.17;100124.97;2623276;47;20023;-68
2021/10/08 08:53:01;;;;;;;8.27;7.20;;;;;;;12.60;70.27;100119.94;2623661;54;20042;-67
2021/10/08 08:55:36;;;;;;;10.45;6.97;;;;;;;12.71;69.59;100118.75;2622964;47;20031;-67
2021/10/08 08:58:06;;;;;;;7.32;6.22;;;;;;;12.78;69.32;100111.75;2623480;54;20058;-67
2021/10/08 09:00:37;;;;;;;9.40;6.70;;;;;;;12.97;68.61;100114.94;2621577;54;20039;-67
2021/10/08 09:03:09;;;;;;;15.30;6.40;;;;;;;13.00;68.24;100115.41;2622178;54;20027;-67
2021/10/08 09:05:39;;;;;;;12.40;6.75;;;;;;;13.00;67.50;100106.63;2622886;54;20034;-68
2021/10/08 09:08:13;;;;;;;8.23;6.30;;;;;;;13.03;67.71;100112.41;2624081;39;20407;-67
2021/10/08 09:10:46;;;;;;;7.40;6.53;;;;;;;13.12;67.71;100105.22;2620715;54;20055;-67
2021/10/08 09:13:17;;;;;;;9.50;6.43;;;;;;;13.24;67.04;100100.34;2621069;54;20042;-68
2021/10/08 09:15:50;;;;;;;8.32;5.90;;;;;;;13.28;67.24;100097.16;2620510;54;20027;-67
2021/10/08 09:18:22;;;;;;;7.45;6.63;;;;;;;13.37;67.06;100104.03;2621557;54;20127;-72
2021/10/08 09:21:09;;;;;;;8.80;5.35;;;;;;;13.44;66.60;100101.50;2622566;47;20029;-66
2021/10/08 09:23:46;;;;;;;6.57;5.60;;;;;;;13.54;66.49;100096.75;2622969;47;20023;-67
2021/10/08 09:26:20;;;;;;;11.35;5.80;;;;;;;13.66;66.59;100093.66;2622114;47;20045;-66
2021/10/08 09:28:57;;;;;;;6.50;5.38;;;;;;;13.76;65.81;100092.41;2623642;54;20060;-67
2021/10/08 09:31:29;;;;;;;6.93;5.53;;;;;;;13.85;65.88;100088.66;2623268;54;20042;-68
2021/10/08 09:34:16;;;;;;;8.25;6.00;;;;;;;13.96;65.18;100087.38;2622848;51;20037;-68
2021/10/08 09:36:52;;;;;;;10.27;5.97;;;;;;;13.99;65.11;100084.31;2623335;54;20038;-67
2021/10/08 09:39:26;;;;;;;5.70;4.72;;;;;;;14.07;64.82;100088.72;2621147;54;20038;-68
2021/10/08 09:42:01;;;;;;;9.20;5.25;;;;;;;14.16;64.42;100084.13;2621855;47;20026;-68
2021/10/08 09:44:33;;;;;;;6.68;5.97;;;;;;;14.22;64.43;100081.56;2621797;54;20038;-67
2021/10/08 09:47:14;;;;;;;8.45;5.30;;;;;;;14.25;64.58;100086.53;2622377;39;20475;-67
2021/10/08 09:49:46;;;;;;;7.30;5.70;;;;;;;14.35;64.78;100080.91;2623882;54;20038;-66
2021/10/08 09:52:37;;;;;;;7.85;5.28;;;;;;;14.49;64.00;100084.59;2623956;54;20743;-66
2021/10/08 09:55:10;;;;;;;7.63;4.75;;;;;;;14.54;63.44;100076.88;2623181;39;20364;-66
2021/10/08 09:58:00;;;;;;;5.72;5.22;;;;;;;14.61;62.70;100077.75;2622653;51;20033;-68
2021/10/08 10:00:42;;;;;;;5.30;4.80;;;;;;;14.69;63.03;100076.84;2622265;54;20033;-67
2021/10/08 10:03:14;;;;;;;8.27;4.88;;;;;;;14.73;62.65;100070.94;2621907;54;20026;-67
2021/10/08 10:05:44;;;;;;;8.52;5.03;;;;;;;14.86;61.75;100068.44;2621137;54;20039;-66
2021/10/08 10:08:14;;;;;;;5.97;4.63;;;;;;;14.91;61.91;100069.72;2621744;54;20046;-67
2021/10/08 10:10:46;;;;;;;6.53;4.63;;;;;;;14.94;61.96;100066.63;2622106;54;20037;-68
2021/10/08 10:13:18;;;;;;;6.47;5.07;;;;;;;15.02;61.29;100069.19;2622667;54;20035;-66
2021/10/08 10:15:48;;;;;;;5.78;4.30;;;;;;;15.04;62.00;100072.50;2622699;54;20065;-67
2021/10/08 10:18:20;;;;;;;5.90;4.93;;;;;;;15.15;60.91;100064.00;2621670;47;20031;-67
2021/10/08 10:20:51;;;;;;;8.02;5.35;;;;;;;15.20;61.01;100058.91;2622470;54;20533;-67
2021/10/08 10:23:23;;;;;;;6.68;4.38;;;;;;;15.26;60.70;100074.13;2622513;54;20070;-68
2021/10/08 10:25:54;;;;;;;6.40;4.30;;;;;;;15.27;60.53;100065.13;2621661;47;20063;-68
2021/10/08 10:28:26;;;;;;;6.03;4.15;;;;;;;15.32;60.26;100064.53;2622402;54;20022;-68
2021/10/08 10:30:56;;;;;;;5.63;4.22;;;;;;;15.36;59.87;100066.63;2622271;54;20086;-68
2021/10/08 10:33:28;;;;;;;4.85;3.95;;;;;;;15.44;59.48;100065.66;2621725;54;20046;-68
2021/10/08 10:35:59;;;;;;;7.68;4.20;;;;;;;15.55;58.79;100069.63;2621467;47;20050;-69
2021/10/08 10:38:33;;;;;;;6.63;4.20;;;;;;;15.55;58.59;100073.13;2622027;54;20036;-68
2021/10/08 10:41:29;;;;;;;6.30;4.37;;;;;;;15.54;58.91;100060.81;2621314;54;20078;-68
2021/10/08 10:44:17;;;;;;;7.22;4.18;;;;;;;15.59;58.80;100069.06;2621308;47;20034;-69
2021/10/08 10:46:57;;;;;;;6.32;4.13;;;;;;;15.65;58.97;100066.66;2622121;54;20034;-68
2021/10/08 10:49:49;;;;;;;7.65;4.72;;;;;;;15.68;58.62;100056.44;2620189;54;20561;-68
2021/10/08 10:52:29;;;;;;;8.50;4.80;;;;;;;15.68;58.77;100061.78;2619470;54;20162;-68
2021/10/08 10:55:17;;;;;;;7.13;4.85;;;;;;;15.75;58.25;100059.13;2620566;39;20454;-68
2021/10/08 10:58:02;;;;;;;7.40;5.10;;;;;;;15.77;58.76;100057.09;2621218;39;20399;-67
2021/10/08 11:00:41;;;;;;;6.18;4.20;;;;;;;15.86;58.56;100063.94;2621924;39;20453;-66
2021/10/08 11:03:15;;;;;;;3.97;3.67;;;;;;;16.06;57.66;100050.69;2621873;54;20031;-66
2021/10/08 11:06:19;;;;;;;5.05;4.55;;;;;;;16.28;56.64;100054.06;2621460;54;20030;-69
2021/10/08 11:09:17;;;;;;;4.60;4.05;;;;;;;16.43;54.86;100051.28;2620811;54;20049;-68
2021/10/08 11:11:47;;;;;;;6.30;4.40;;;;;;;16.43;55.45;100044.09;2621914;39;20785;-68
2021/10/08 11:14:22;;;;;;;4.95;4.32;;;;;;;16.51;55.42;100032.41;2621631;54;20030;-69
2021/10/08 11:16:54;;;;;;;7.03;5.07;;;;;;;16.59;55.55;100038.38;2620604;47;20067;-67
2021/10/08 11:19:41;;;;;;;8.95;5.00;;;;;;;16.78;54.10;100034.16;2620729;54;20037;-67
2021/10/08 11:22:11;;;;;;;6.25;5.60;;;;;;;16.83;54.49;100033.53;2620818;47;20018;-67
2021/10/08 11:24:41;;;;;;;6.35;5.70;;;;;;;16.92;54.23;100031.50;2620192;39;20433;-68
2021/10/08 11:27:11;;;;;;;6.68;5.97;;;;;;;17.13;52.86;100038.50;2622097;54;20030;-67
2021/10/08 11:29:40;;;;;;;7.80;6.30;;;;;;;17.14;53.10;100024.91;2622346;54;20077;-67
2021/10/08 11:32:14;;;;;;;7.63;6.80;;;;;;;17.19;53.65;100025.13;2621626;54;20094;-66
2021/10/08 11:34:52;;;;;;;7.72;6.53;;;;;;;17.38;53.13;100031.47;2621344;54;20038;-67
2021/10/08 11:37:22;;;;;;;6.88;6.22;;;;;;;17.52;52.81;100021.63;2619051;54;20569;-67
2021/10/08 11:39:53;;;;;;;6.70;6.10;;;;;;;17.63;51.99;100018.28;2619167;54;20110;-67
2021/10/08 11:42:24;;;;;;;6.15;5.50;;;;;;;17.64;51.77;100019.94;2621156;54;20062;-68
2021/10/08 11:45:04;;;;;;;9.27;6.97;;;;;;;17.57;52.30;100009.25;2620730;47;20617;-68
2021/10/08 11:47:40;;;;;;;7.43;5.80;;;;;;;17.58;52.62;100007.41;2621862;54;20070;-67
2021/10/08 11:50:40;;;;;;;7.00;6.28;;;;;;;17.61;52.38;100007.00;2619681;54;20030;-67